Hartford, Connecticut
Traffic Map
Current Weather Conditions
Hartford, Connecticut
Few Clouds
Few Clouds
88°
Feels Like: 90°
Wind Chill: 88° Ceiling: Unl
Heat Index: 90° Visibility: 10mi
Dew Point: 66° Wind: 3mph
Humidity: 48% Direction: 130° (SE)
Pressure: 30.02in Gusts: 0mph
Raw Report DataKHFD 301653Z 13003KT 10SM FEW070 31/19 A3002 RMK AO2 SLP164 T03110189
Traffic Incident Summary
Active as of:
Severity:
Category:
InformationThere was an issue retrieving the traffic information for this location. Please try a different location or try again shortly.
Advertisements
Track Severe Weather on mobile